De Kalb Junction, New York
Current Conditions -  °F | °C
As of 3:53 AM on Friday 28 Nov 2014 (Local Time) from KMSS Reporting Station
Overcast Overcast  
Wind Chill: 17°   Ceiling: 3800
Heat Index: 25°   Visibility: 10mi
Dew Point: 17°   Wind: 7mph
Humidity: 72%   Direction: 260°W
Pressure: 30.08"   Gusts: NA
Location:  44.5°N, 75.27°W
Report Text: KMSS 280853Z AUTO 26006KT 10SM OVC038 M04/M08 A3008 RMK AO2 SLP194 60000 T10391083 53005
Loading
Personal Weather Stations






























Interactive Weather Map New forecast layout! Learn more

10-Day Weather Forecast

Advertisements
Track Severe Weather on mobile